Terminal Aerodrome Forecast
Issued by NWS Tulsa, OK

Home | Current Version | Previous Version | Text Only | Print | Product List | Glossary On
Versions: 1 2 3 4 5 6 7 8 9 10 11 12
000
FTUS44 KTSA 282321
TAFFSM
TAF
KFSM 282321Z 2900/2924 17010KT P6SM SCT070
     FM291600 15008KT P6SM SCT035 BKN250
     FM291900 15009KT P6SM SCT060 SCT250=

USA.gov is the U.S. government's official web portal to all federal, state and local government web resources and services.